Airfield :
LOGIN :

Register | Disclaimer

   EN    FR    IT 

 










Legend :    VFR   Marginal VFR   IFR   Intensive IFR   Very Intensive IFR
Visi :
Ceiling :
>= 8 km
>= 3000ft
5 to 8 km
1000 to 3000 ft
1500m to 5 km
500 to 1000 ft
800 to 1500m
200 to 500 ft
< 800m
< 200 ft
Symbols :   Thunderstorms  Fog  Heavy snow  Heavy precipitations  Wind > 20 kt
SIGMETs :     Misc.  Thunderstorms  Icing  Turbulence  Mountain Waves  Volcanic Ashes







- Airport Elevation : 7 ft
- IATA code : XHE
- Download approach charts


LFTH - Hyeres

CURRENT METAR :
  • 180500Z AUTO VRB03KT 9999 FEW008 19/16 Q1014 NOSIG

EXPIRED METARs :
  • 180430Z AUTO 02004KT CAVOK 17/15 Q1013 NOSIG
  • 180400Z AUTO 03005KT CAVOK 17/15 Q1013 NOSIG
  • 180330Z AUTO 03005KT CAVOK 18/16 Q1013 NOSIG
  • 180300Z AUTO 02004KT CAVOK 18/15 Q1013 NOSIG
  • 180230Z AUTO 01003KT CAVOK 18/15 Q1013 NOSIG
  • 180200Z AUTO 35004KT 290V020 CAVOK 18/16 Q1013 NOSIG

TAF TAF LFTH
Valid from the 18 at 03:00 until the 19 at 03:00 UTC


180200Z 1803/1903 VRB03KT CAVOK
BECMG 1808/1810 16012KT
BECMG 1812/1814 24017KT
BECMG 1819/1821 28010KT
BECMG 1823/1901 VRB03KT
No reported NOTAMs for that airfield.



MET'MAP, your aeronautical weather chart ! - Copyright ORBIFLY December 2007 - Disclaimer

ORBIFLY MET'MAP TEAM :

Programming & Development : Alexandra Zaïnal
Concept & Development : Baudouin d'Aumeries
Co-Development & Prog : Marc-Olivier Méhu
Technical & hardware support : Manuel Goepfert

Contact : metmap@orbifly.com




SOURCES & CREDITS :

   NOAA